Pagina principale
METAR-TAF:

METAR-TAF

Aeroporti :

Aeroporto di Lecce-Galatina

Lecce, Italia

latitudine: 40-14N, longitudine: 018-09E, altezza: 48 m

Osservazione

Il bollettino è stato emesso 1 ora e 6 minuti fa, alle 11:55 UTC
Vento 7 kt da sud-est
Temperature 30°C
Umidità 59%
Pressione 1016 hPa
Visibilità 10 km o più
Poco nuvoloso ad un'altezza di 1500 ft
Nubi sparse ad un'altezza di 4000 ft

METAR: LIBN 271155Z 13007KT 9999 FEW015 SCT040 30/21 Q1016 RMK BKN BKN120 VIS MIN 9999 WIND THR14 13006KT WIND THR32 13006KT BLU

Ora: 15:01 (13:01 UTC)

Previsione

Il bollettino è stato emesso 2 ore e 1 minuti fa, alle 11:00 UTC
Previsione valida dal 27 alle 12 UTC al 27 alle 21 UTC
Vento 12 kt da sud-ovest
Visibilità 10 km o più
Poco nuvoloso ad un'altezza di 1200 ft
Temporaneamente
dal 27 alle 12 UTC al 27 alle 15 UTC
Vento 3 kt da direzioni variabili
Nubi sparse ad un'altezza di 1500 ft

TAF: LIBN 271100Z 2712/2721 23012KT 9999 FEW012 TEMPO 2712/2715 VRB03KT SCT015

Osservazioni e previsioni meteorologiche di più di 4000 aeroporti (messaggi METAR e TAF).

Le stazioni disponibili sono rappresentate dai dischi gialli e rossi sulla carta.

Puntare il mouse per vedere il nome della stazione.

Clicca sopra per visualizzare le osservazioni e previsioni meteorologiche.

Per cambiare la mappa : fare clic sui pulsanti verdi con una croce nera per ingrandire, il pulsante verde con un trattino per diminuire, o sulla freccia verde per le mappe adiacenti.


METAR-TAF: